Energiesparende Spülmaschinen im Vergleich

Hersteller Modell Kaufpreis (€) Energieverbrauch (kWh/100 Zyklen) Stromkosten (€/100 Zyklen) CO₂ durch Betrieb (kg CO₂e/100 Zyklen) Energieeffizienzklasse Bauart Design Geräusch (dBA) Breite (cm) Testergebnis Stiftung Warentest Wasserkosten (€/Jahr) Fassungsvermögen (Anzahl Maßgedecke)absteigend sortieren Programmdauer
ETTREF0400302 NN NichtempfehlenswertesProdukt 523 € 27 50 G Vollintegrierbar 48 44,8 - 0 9 3:20
4002516296508 Miele G 5840 SC SL 1.092 € 18 30 C Standgerät Brillantweiß 43 44,8 - 3 9 3:56
4002516296416 Miele G 5840 SCi SL 1.240 € 18 30 C Integrierbar Edelstahl CleanSteel 43 44,8 3 9 3:56
Miele G 5840 SCi SL 1.240 € 18 30 C Integrierbar Brillantweiß 43 44,8 3 9 3:56
4002516295488 Miele G 5840 SCU SL 1.179 € 18 30 C Unterbau Edelstahl CleanSteel 43 44,8 3 9 3:56
4002516296423 Miele G 5890 SCVi SL 1.465 € 18 30 C Vollintegrierbar Edelstahl CleanSteel 43 44,8 3 9 3:56
4242005215058 Bosch SPV6ZMX23E 701 € 19 32 C Vollintegrierbar 43 44,8 4 10 3:30
4242004247807 Neff S857ZMX09E 772 € 19 32 C Vollintegrierbar 43 44,8 4 10 3:30
4242006297428 Gaggenau DF264100 1.190 € 19 32 C Vollintegrierbar 44 44,8 4 10 3:30
4242003879771 Siemens SR25ZW11ME 681 € 19 32 C Standgerät Weiß 43 45,0 4 10 3:30
4242003879795 Siemens SR45ZS11ME 711 € 19 32 C Unterbau Edelstahl 43 44,8 4 10 3:30
4242003879481 Siemens SR55ZS11ME 711 € 19 32 C Integrierbar Edelstahl 43 44,8 4 10 3:30
4242003862100 Siemens SR65ZX23ME 931 € 19 32 C Vollintegrierbar 43 44,8 4 10 3:30
4242005221271 Bosch SPI6ZMS35E 679 € 19 32 C Integrierbar Edelstahl 43 44,8 4 10 3:30
4242005202072 Bosch SPS6ZMW35E 687 € 19 32 C Standgerät Weiß 43 45,0 4 10 3:30
4242005221288 Bosch SPU6ZMS35E 701 € 19 32 C Unterbau Edelstahl 43 44,8 4 10 3:30
ETTREF0400301 NN NichtempfehlenswertesProdukt 349 € 34 63 F Stand weiß 52 60,0 - 0 12 3:30
4242006297053 Gaggenau DF480100 2.195 € 23 40 C Vollintegrierbar 42 59,8 4 12 3:55
4002516061823 Miele G 7100 859 € 23 40 C Standgerät Brillantweiß 43 59,8 4 13 3:58
4242003890011 Siemens SN 43 ES 15AE 610 € 23 40 C Integrierbar Edelstahl 44 59,8 - 4 13 4:35
4242004251781 Constructa CB6VX00EAD 535 € 24 40 C Vollintegrierbar 44 59,8 4 13 4:35
4002516061724 Miele G 7100 i 1.098 € 23 40 C Integrierbar Edelstahl CleanSteel 43 59,8 - 4 13 3:58
4242003866849 Siemens SN23EC14CE 699 € 24 40 C Standgerät Black inox 44 60,0 4 13 4:35
4242003875827 Siemens SN 45 ZS0 3AE 693 € 23 40 C Integrierbar Edelstahl 44 59,8 - 4 13 3:55
4242004253655 Constructa CG6IS00EAD 647 € 24 40 C Integrierbar Edelstahl 44 59,8 4 13 4:35
4242003862568 Siemens SN 63 EX 15 AE 674 € 23 40 C Vollintegrierbar 44 59,8 - 4 13 4:35
4242004253662 Constructa CG6US00EAD 545 € 24 40 C Unterbau Edelstahl 44 59,8 4 13 4:35
4242005173785 Bosch SMV 4 ECX 14 E 631 € 23 40 C Vollintegrierbar 44 59,8 - 4 13 4:35
4242004253679 Constructa CG6VX00EAD 575 € 24 40 C Vollintegrierbar 44 59,8 4 13 4:35
4002516061786 Miele G 7100 U 958 € 23 40 C Unterbau Brillantweiß 43 59,8 4 13 3:58
4242005181506 Bosch SBV6ZDX49E 931 € 24 40 C Vollintegrierbar 42 59,8 4 13 3:55
4242006296728 Gaggenau DF261100 1.364 € 24 40 C Vollintegrierbar 42 59,8 4 13 3:55
4242004253907 Neff S145ECS11E 699 € 24 40 C Integrierbar Edelstahl 44 59,8 4 13 4:35
4242005175703 Bosch SMS 4 ECW 14E 617 € 23 40 C Standgerät Weiß 44 60,0 - 4 13 4:35
4242004253914 Neff S147EAS36E 796 € 24 40 C Integrierbar Edelstahl 44 59,8 4 13 4:35
4242005187300 Bosch SMI6ZDS49E 880 € 24 40 C Integrierbar Edelstahl 42 59,8 4 13 3:55
4242005187249 Bosch SMI 4 ECS 14 E 628 € 23 40 C Integrierbar Edelstahl 44 59,8 - 4 13 4:35
4242004258827 Neff S127EAS39E 699 € 23 40 C Integrierbar Edelstahl 44 59,8 - 4 13 4:35
4242005186044 Bosch SMS6ECI03E 888 € 24 40 C Standgerät Edelstahl, lackiert 44 60,0 4 13 3:55
4242004253815 Neff S155ECX11E 828 € 24 40 C Vollintegrierbar 44 59,8 4 13 4:35

Seiten

XLS

Stand Tabelle: November 2021

Kaufpreis = Median, ermittelt von idealo, Aktuelle Preise unter idealo.de

Jährliche Gesamtkosten: Die Anschaffungskosten werden auf die Lebensdauer umgerechnet. Geschirrspülmaschinen halten in der Regel 12,5 Jahre. Eine nachgewiesene längere Lebensdauer wurde berücksichtigt. Dies ist bei Geräten der Firma Miele der Fall, die eine Lebensdauer von 20 Jahren haben. Mit berechnet wurden die jährlichen Kosten für den Verbrauch von Strom, Wasser und Reinigungsmitteln (angenommener Preis: Strom 0,3189 €/kWh (inkl. Grundpreis, Quelle: BDEW- Strompreisanalyse Februar 1/2021 des Bundesverband der Energie- und Wasserwirtschaft e.V.), Wasser 4,04 Euro pro m³, Reiniger 11 Cent pro Spülgang).

Jährliche Emissionen an CO2-Äquivalenten: Mit berechnet wurde die Herstellung bezogen auf die Lebensdauer und der Stromverbrauch auf der Basis von 100 Spülgängen. Für eine Kilowattstunde Strom werden in Deutschland klimarelevante Emissionen in Höhe von durchschnittlich 545 g CO2-Äquivalenten frei (Quelle: EcoInvent 3.7.1).

 

 

Spülen Sie von Hand, verbrauchen Sie unnötig viel Energie, Wasser und Geld. Die Anschaffung einer Spülmaschine macht also durchaus Sinn. Wir helfen Ihnen ein Gerät zu finden, das sparsam ist, zu Ihnen passt und Ihr Geschirr blitzeblank erstrahlen lässt.

Wenn Sie Ihre Spülmaschine richtig beladen und bedienen, sparen Sie Energie, Geld und Nerven. EcoTopTen zeigt Ihnen wie das geht.

Kompakte Infos zum Energieverbrauch von Geschirrspülmaschinen.